Time;durP1;ratioP1;P1;durP2;ratioP2;P2;SDS_P1;SDS_P2;PMS_P1;PMS_P2;Temp;Humidity;BMP_temperature;BMP_pressure;BME280_temperature;BME280_humidity;BME280_pressure;Samples;Min_cycle;Max_cycle;Signal;HPM_P1;HPM_P2
2021/03/12 00:00:49;;;;;;;5.53;2.27;;;14.80;89.10;;;14.75;44.56;100007.34;4937125;28;96855;-52
2021/03/12 00:03:23;;;;;;;6.90;1.80;;;14.80;88.00;;;14.56;44.79;100001.47;4942675;28;98186;-50
2021/03/12 00:05:54;;;;;;;5.37;2.10;;;14.50;88.20;;;14.63;44.50;100012.59;4915579;28;96986;-53
2021/03/12 00:08:36;;;;;;;5.17;1.53;;;14.60;89.10;;;14.46;44.68;100010.97;4926697;28;97456;-50
2021/03/12 00:11:03;;;;;;;4.63;1.50;;;14.40;86.70;;;14.45;42.48;100007.44;4917187;28;98796;-50
2021/03/12 00:13:30;;;;;;;5.67;2.00;;;14.40;86.70;;;14.40;44.54;100025.44;4928690;28;99657;-50
2021/03/12 00:15:56;;;;;;;5.73;1.80;;;14.30;88.10;;;14.26;43.93;100025.41;4918058;28;99278;-52
2021/03/12 00:18:34;;;;;;;4.23;1.70;;;14.20;87.30;;;14.32;45.19;100035.69;4926265;28;98529;-54
2021/03/12 00:21:02;;;;;;;6.30;1.60;;;14.20;89.20;;;14.52;43.29;100037.97;4917521;28;98438;-55
2021/03/12 00:23:28;;;;;;;2.77;1.23;;;14.50;87.60;;;14.68;44.27;100037.03;4928477;28;97443;-50
2021/03/12 00:25:54;;;;;;;4.67;1.40;;;14.70;88.40;;;14.76;44.03;100050.69;4915342;28;98449;-53
2021/03/12 00:28:20;;;;;;;5.20;1.60;;;14.80;86.80;;;14.94;44.07;100046.03;4933866;28;99311;-51
2021/03/12 00:30:46;;;;;;;7.03;2.07;;;15.00;87.60;;;14.98;43.35;100051.03;4920319;28;98139;-59
2021/03/12 00:33:14;;;;;;;6.90;1.80;;;15.10;85.40;;;14.68;44.27;100053.81;4943690;28;99176;-50
2021/03/12 00:35:43;;;;;;;3.43;1.77;;;14.60;87.70;;;14.60;43.45;100058.72;4935306;28;98855;-54
2021/03/12 00:38:10;;;;;;;3.37;1.40;;;14.60;85.40;;;14.42;42.77;100063.34;4939796;28;98299;-51
2021/03/12 00:40:51;;;;;;;6.20;1.67;;;14.40;86.10;;;14.05;43.16;100070.00;4920622;28;97461;-52
2021/03/12 00:43:18;;;;;;;3.13;1.43;;;14.00;87.70;;;14.17;44.01;100079.84;4941837;28;103257;-53
2021/03/12 00:46:07;;;;;;;4.20;1.47;;;14.00;88.70;;;14.20;45.32;100078.84;4937275;28;100803;-53
2021/03/12 00:48:33;;;;;;;4.93;1.17;;;14.10;90.20;;;14.26;45.12;100084.63;4926894;28;97301;-53
2021/03/12 00:50:59;;;;;;;3.93;1.30;;;14.10;90.10;;;14.33;45.11;100101.06;4917096;28;97603;-51
2021/03/12 00:53:26;;;;;;;3.60;1.47;;;14.30;89.70;;;14.16;45.07;100087.91;4945884;28;98690;-48
2021/03/12 00:55:52;;;;;;;3.83;1.63;;;14.10;89.30;;;14.28;43.21;100092.50;4914048;28;100341;-51
2021/03/12 00:58:21;;;;;;;5.90;2.00;;;14.40;86.40;;;14.28;44.21;100095.16;4932752;28;99452;-53
2021/03/12 01:00:47;;;;;;;4.50;1.60;;;14.40;87.40;;;14.38;44.91;100098.97;4912989;28;101924;-56
2021/03/12 01:03:13;;;;;;;5.43;1.40;;;14.40;88.40;;;13.81;44.96;100114.69;4932266;28;105081;-52
2021/03/12 01:05:40;;;;;;;4.10;1.60;;;14.00;87.40;;;14.10;45.79;100114.81;4946698;28;98308;-52
2021/03/12 01:08:07;;;;;;;8.10;2.17;;;14.00;90.40;;;14.00;44.75;100112.69;4912459;28;98362;-50
2021/03/12 01:10:35;;;;;;;3.20;1.40;;;14.20;87.50;;;13.89;45.58;100117.78;4928974;28;97888;-53
2021/03/12 01:13:01;;;;;;;7.67;2.17;;;13.90;90.20;;;14.23;43.64;100110.50;4927804;28;98223;-50
2021/03/12 01:15:28;;;;;;;5.57;1.60;;;14.30;87.90;;;14.24;44.76;100117.50;4931602;28;98410;-50
2021/03/12 01:17:54;;;;;;;4.53;1.40;;;14.40;88.80;;;14.26;45.27;100120.91;4913958;28;98769;-50
2021/03/12 01:20:25;;;;;;;10.30;1.83;;;14.30;89.90;;;14.47;44.69;100129.44;4927414;28;97505;-51
2021/03/12 01:22:54;;;;;;;6.47;1.70;;;14.50;88.20;;;14.42;44.73;100124.34;4914790;28;105737;-53
2021/03/12 01:25:23;;;;;;;4.47;1.57;;;14.40;88.70;;;14.39;42.88;100127.19;4928128;28;103330;-54
2021/03/12 01:27:50;;;;;;;4.63;1.60;;;14.50;86.60;;;14.12;44.88;100118.22;4933211;28;99106;-60
2021/03/12 01:30:22;;;;;;;5.67;1.63;;;14.00;89.40;;;13.89;46.18;100128.38;4925019;28;98042;-55
2021/03/12 01:32:48;;;;;;;6.27;2.20;;;13.60;90.60;;;13.85;45.80;100132.13;4919796;28;99734;-50
2021/03/12 01:35:15;;;;;;;3.90;1.67;;;13.70;89.70;;;14.02;46.00;100119.69;4922417;28;102490;-49
2021/03/12 01:37:41;;;;;;;7.17;2.07;;;13.80;90.80;;;13.88;45.62;100131.09;4919647;28;96845;-49
2021/03/12 01:40:11;;;;;;;5.57;1.73;;;13.70;90.30;;;13.90;44.57;100140.69;4922218;28;97519;-52
2021/03/12 01:42:37;;;;;;;5.97;2.03;;;13.90;87.80;;;13.74;44.57;100154.88;4916859;28;102944;-49
2021/03/12 01:45:17;;;;;;;5.53;1.83;;;13.70;88.90;;;13.74;44.96;100161.03;4927864;28;100242;-53
2021/03/12 01:47:43;;;;;;;7.53;2.40;;;13.70;88.60;;;13.95;45.89;100166.94;4926577;28;97336;-53
2021/03/12 01:50:10;;;;;;;6.27;1.80;;;13.90;90.40;;;13.98;46.02;100180.88;4930584;28;102472;-52
2021/03/12 01:52:36;;;;;;;8.13;1.97;;;13.90;90.30;;;14.00;45.58;100194.88;4941630;28;101634;-53
2021/03/12 01:55:06;;;;;;;7.20;2.20;;;13.90;90.00;;;14.15;43.13;100187.00;4920512;28;100060;-49
2021/03/12 01:57:32;;;;;;;9.43;2.50;;;14.20;88.50;;;14.18;43.87;100184.19;4940942;28;97400;-52
2021/03/12 01:59:58;;;;;;;7.37;2.00;;;14.20;87.60;;;14.22;45.29;100177.75;4933540;28;97437;-51
2021/03/12 02:02:24;;;;;;;7.10;1.80;;;14.10;90.00;;;13.84;45.09;100183.44;4907634;28;96904;-52
2021/03/12 02:04:50;;;;;;;4.17;1.80;;;13.80;88.70;;;14.03;45.43;100187.69;4925920;28;98182;-50
2021/03/12 02:07:15;;;;;;;7.60;2.30;;;13.90;90.20;;;13.87;44.77;100193.00;4922229;28;101349;-50
2021/03/12 02:09:41;;;;;;;5.67;1.90;;;13.90;88.60;;;14.15;43.09;100197.59;4902315;28;100896;-51
2021/03/12 02:12:22;;;;;;;5.83;2.23;;;14.20;86.30;;;13.94;44.10;100194.41;4923340;28;97688;-49
2021/03/12 02:15:06;;;;;;;6.00;2.03;;;14.00;88.50;;;14.32;45.09;100194.84;4916733;28;98072;-49
2021/03/12 02:17:57;;;;;;;6.80;1.93;;;14.20;89.90;;;14.35;42.38;100210.59;4912887;28;98892;-54
2021/03/12 02:20:57;;;;;;;7.10;2.13;;;14.50;87.80;;;14.19;45.21;100200.00;4912050;28;98361;-50
2021/03/12 02:23:47;;;;;;;9.23;2.40;;;14.10;86.10;;;13.84;43.66;100203.78;4921947;28;104139;-55
2021/03/12 02:26:36;;;;;;;6.40;2.50;;;13.80;88.60;;;14.00;44.36;100207.28;4914547;28;98295;-52
2021/03/12 02:29:05;;;;;;;7.00;1.97;;;13.80;90.50;;;13.76;43.89;100216.66;4909689;28;96973;-49
2021/03/12 02:31:32;;;;;;;6.00;2.13;;;13.70;88.50;;;13.91;45.11;100211.34;4935061;28;105075;-52
2021/03/12 02:34:00;;;;;;;9.10;2.53;;;13.90;90.00;;;14.11;44.30;100223.44;4944006;28;104088;-53
2021/03/12 02:36:31;;;;;;;7.07;2.50;;;14.10;86.60;;;14.01;42.97;100214.28;4906190;28;100795;-52
2021/03/12 02:38:58;;;;;;;5.70;2.47;;;14.10;86.70;;;14.18;45.10;100214.22;4927269;28;99936;-51
2021/03/12 02:41:27;;;;;;;7.53;2.60;;;14.10;89.50;;;14.22;43.03;100226.34;4932195;28;99602;-52
2021/03/12 02:43:54;;;;;;;5.50;2.27;;;14.30;86.70;;;14.20;45.17;100224.72;4932331;28;98766;-54
2021/03/12 02:46:22;;;;;;;6.63;2.90;;;14.10;88.50;;;14.13;44.62;100233.97;4920980;28;97918;-51
2021/03/12 02:48:49;;;;;;;10.63;3.30;;;14.00;89.00;;;14.17;43.98;100232.84;4944218;28;97687;-51
2021/03/12 02:51:16;;;;;;;11.83;3.73;;;14.20;87.40;;;14.00;44.00;100226.69;4921143;28;99424;-54
2021/03/12 02:53:42;;;;;;;10.80;3.30;;;14.00;88.10;;;14.37;44.71;100239.69;4912440;28;98702;-53
2021/03/12 02:56:08;;;;;;;9.80;2.60;;;14.40;88.50;;;14.52;43.66;100239.66;4930682;28;97513;-51
2021/03/12 02:58:36;;;;;;;8.40;2.67;;;14.60;86.90;;;14.30;44.75;100233.84;4927256;28;98200;-51
2021/03/12 03:01:05;;;;;;;10.53;3.10;;;14.40;87.80;;;14.20;43.44;100243.31;4934462;28;98989;-57
2021/03/12 03:03:33;;;;;;;8.33;2.60;;;14.30;86.10;;;14.14;45.07;100243.63;4953696;28;100539;-51
2021/03/12 03:06:03;;;;;;;9.60;3.07;;;14.10;88.40;;;14.03;45.25;100246.88;4978349;28;97363;-50
2021/03/12 03:08:30;;;;;;;9.43;2.67;;;14.00;88.80;;;13.98;44.42;100255.09;4960270;28;105636;-49
2021/03/12 03:11:07;;;;;;;10.97;2.70;;;13.90;89.70;;;14.12;44.02;100251.69;4969822;28;96890;-55
2021/03/12 03:13:36;;;;;;;11.00;2.87;;;14.10;86.80;;;14.17;44.40;100248.75;4960956;28;100481;-55
2021/03/12 03:16:05;;;;;;;11.47;3.03;;;14.20;87.60;;;14.18;45.22;100245.19;4955305;28;97077;-51
2021/03/12 03:18:38;;;;;;;9.43;3.00;;;14.10;88.90;;;13.87;45.44;100252.19;4946600;28;98231;-52
2021/03/12 03:21:05;;;;;;;11.30;3.03;;;13.90;86.50;;;14.32;44.97;100258.53;4955689;28;97026;-53
2021/03/12 03:23:38;;;;;;;9.33;3.33;;;14.30;89.20;;;14.57;44.31;100264.13;4930973;28;97969;-52
2021/03/12 03:26:05;;;;;;;8.63;2.83;;;14.60;88.10;;;14.52;44.21;100257.41;4956162;28;98926;-57
2021/03/12 03:28:31;;;;;;;11.70;3.43;;;14.60;87.70;;;14.61;43.46;100269.25;4964369;28;97922;-52
2021/03/12 03:31:03;;;;;;;9.20;2.60;;;14.80;85.30;;;14.37;42.44;100268.88;4957877;28;96988;-55
2021/03/12 03:33:29;;;;;;;6.73;2.47;;;14.40;86.70;;;14.39;43.83;100270.47;4963496;28;102819;-49
2021/03/12 03:35:56;;;;;;;7.53;2.13;;;14.40;86.90;;;14.43;44.00;100279.97;4956832;28;98502;-50
2021/03/12 03:38:24;;;;;;;12.00;2.33;;;14.40;87.30;;;14.33;44.04;100265.53;4960767;28;97033;-49
2021/03/12 03:40:50;;;;;;;7.00;2.23;;;14.40;86.50;;;14.45;40.96;100270.16;4955500;28;96833;-54
2021/03/12 03:43:23;;;;;;;7.47;2.50;;;14.60;83.30;;;14.42;43.17;100282.72;4942712;28;99477;-52
2021/03/12 03:45:50;;;;;;;8.87;2.33;;;14.50;83.20;;;14.55;41.62;100281.94;4943177;28;98342;-51
2021/03/12 03:48:16;;;;;;;9.07;2.73;;;14.60;84.90;;;14.55;44.13;100284.59;4945810;28;97833;-50
2021/03/12 03:50:43;;;;;;;9.77;2.30;;;14.50;87.50;;;14.77;43.73;100280.72;4994117;28;97114;-49
2021/03/12 03:53:09;;;;;;;13.90;2.57;;;14.80;87.50;;;14.86;43.65;100286.31;4947546;28;100135;-55
2021/03/12 03:55:36;;;;;;;10.30;2.93;;;15.00;86.00;;;14.49;41.80;100298.25;4959573;28;103480;-54
2021/03/12 03:58:03;;;;;;;5.87;2.00;;;14.60;82.40;;;14.58;41.48;100288.88;4940651;28;98120;-51
2021/03/12 04:00:29;;;;;;;9.07;2.27;;;14.60;85.60;;;14.56;42.93;100294.28;4944764;28;97645;-53
2021/03/12 04:02:57;;;;;;;5.83;2.00;;;14.60;83.30;;;14.50;43.74;100305.25;4957557;28;98569;-51
2021/03/12 04:05:24;;;;;;;11.37;3.17;;;14.40;86.70;;;14.16;43.73;100297.44;4945444;28;99749;-52
2021/03/12 04:07:51;;;;;;;10.20;3.27;;;14.10;85.20;;;14.29;41.74;100299.31;4957560;28;96763;-53
2021/03/12 04:10:19;;;;;;;8.97;2.53;;;14.20;85.00;;;14.34;44.44;100299.09;4928414;28;98881;-53
2021/03/12 04:12:48;;;;;;;9.73;2.83;;;14.20;88.50;;;14.17;43.76;100307.97;4963426;28;99390;-50
2021/03/12 04:15:15;;;;;;;8.97;2.43;;;14.20;84.70;;;14.08;44.49;100307.63;4943344;28;96804;-51
2021/03/12 04:17:42;;;;;;;9.33;2.50;;;13.90;87.20;;;13.99;42.90;100309.84;4958456;28;98173;-54
2021/03/12 04:20:09;;;;;;;11.57;2.90;;;13.90;86.30;;;13.45;44.87;100308.38;4953836;28;96969;-53
2021/03/12 04:22:37;;;;;;;9.53;2.77;;;13.20;88.30;;;13.74;42.93;100312.13;4938585;28;99066;-51
2021/03/12 04:25:05;;;;;;;6.47;2.70;;;13.50;87.50;;;13.60;42.87;100315.53;4951150;28;100076;-52
2021/03/12 04:27:33;;;;;;;6.47;1.90;;;13.50;87.20;;;13.75;45.43;100311.22;4967421;28;96860;-49
2021/03/12 04:29:59;;;;;;;10.17;2.50;;;13.50;90.30;;;13.99;44.79;100309.84;4950500;28;97914;-52
2021/03/12 04:32:25;;;;;;;10.50;2.77;;;13.90;88.30;;;14.20;44.14;100322.88;4968645;28;96642;-49
2021/03/12 04:34:51;;;;;;;11.43;2.63;;;14.20;87.30;;;13.94;42.91;100319.88;4954779;28;105717;-49
2021/03/12 04:37:17;;;;;;;15.10;3.10;;;13.90;86.70;;;13.98;44.72;100317.91;4949358;28;98099;-51
2021/03/12 04:39:43;;;;;;;9.93;2.93;;;13.90;87.40;;;13.96;44.55;100319.78;4962307;28;97257;-50
2021/03/12 04:42:12;;;;;;;8.37;2.90;;;13.90;87.30;;;14.01;44.42;100328.31;4949228;28;127677;-53
2021/03/12 04:44:39;;;;;;;14.00;3.07;;;13.90;89.00;;;13.79;42.95;100333.94;4950242;28;103151;-52
2021/03/12 04:47:06;;;;;;;9.37;3.50;;;13.80;86.30;;;13.48;46.01;100333.88;4931193;28;101971;-52
2021/03/12 04:49:32;;;;;;;15.93;3.60;;;13.30;89.80;;;13.39;45.79;100341.34;4961539;28;97270;-51
2021/03/12 04:51:59;;;;;;;10.90;3.00;;;13.10;90.50;;;13.27;46.06;100347.28;4951676;28;100921;-51
2021/03/12 04:54:27;;;;;;;10.33;3.20;;;13.00;90.40;;;13.05;45.49;100351.94;4953870;28;98657;-49
2021/03/12 04:56:53;;;;;;;9.13;2.80;;;12.90;89.60;;;13.27;44.78;100347.28;4984267;28;96921;-51
2021/03/12 04:59:19;;;;;;;9.83;3.03;;;13.10;89.80;;;13.24;43.93;100352.75;4950334;28;97074;-52
2021/03/12 05:01:47;;;;;;;17.80;3.53;;;13.30;87.60;;;13.12;46.59;100358.63;4949762;28;97961;-54
2021/03/12 05:04:13;;;;;;;13.27;3.00;;;12.90;90.60;;;13.00;46.66;100356.59;4954074;28;97342;-50
2021/03/12 05:06:43;;;;;;;10.47;2.83;;;12.80;90.20;;;12.87;46.81;100356.34;4931078;28;97062;-49
2021/03/12 05:09:13;;;;;;;15.13;3.67;;;12.60;90.40;;;12.87;45.21;100350.22;4961247;28;96820;-51
2021/03/12 05:11:42;;;;;;;10.10;3.30;;;12.70;90.40;;;12.82;45.88;100361.88;4948547;28;101006;-51
2021/03/12 05:14:11;;;;;;;8.57;2.40;;;12.60;90.70;;;12.86;44.97;100351.13;4957033;28;102608;-54
2021/03/12 05:16:37;;;;;;;9.53;2.50;;;12.70;90.10;;;13.02;47.70;100355.63;4947897;28;97379;-51
2021/03/12 05:19:04;;;;;;;11.83;2.80;;;12.70;91.80;;;13.35;47.05;100355.72;4958760;28;97578;-49
2021/03/12 05:21:30;;;;;;;13.57;3.17;;;13.10;91.30;;;13.31;45.46;100359.47;4950769;28;96910;-49
2021/03/12 05:23:58;;;;;;;13.10;2.87;;;13.30;88.40;;;13.26;44.75;100356.16;4969355;28;97698;-54
2021/03/12 05:26:24;;;;;;;5.83;2.17;;;13.20;87.20;;;13.53;44.74;100358.34;4952365;28;97325;-52
2021/03/12 05:28:53;;;;;;;11.93;3.00;;;13.40;90.00;;;13.50;43.04;100363.81;4951082;28;96936;-52
2021/03/12 05:31:26;;;;;;;13.00;3.10;;;13.50;86.20;;;13.35;43.72;100374.25;4951174;28;99978;-56
2021/03/12 05:33:54;;;;;;;9.10;2.83;;;13.20;90.20;;;13.51;43.69;100373.47;4963922;28;99346;-50
2021/03/12 05:36:21;;;;;;;7.93;2.37;;;13.40;88.20;;;13.64;43.28;100372.75;4976192;28;97035;-54
2021/03/12 05:38:47;;;;;;;13.43;2.83;;;13.60;87.10;;;13.51;45.43;100378.75;4945749;28;99684;-51
2021/03/12 05:41:19;;;;;;;10.77;2.67;;;13.40;88.30;;;13.70;45.31;100387.44;4959969;28;100493;-51
2021/03/12 05:43:45;;;;;;;7.60;2.23;;;13.50;90.00;;;13.44;46.03;100378.19;4957165;28;99842;-49
2021/03/12 05:46:13;;;;;;;10.33;3.13;;;13.20;90.10;;;13.64;45.47;100370.09;4956973;28;102021;-54
2021/03/12 05:48:41;;;;;;;13.07;3.20;;;13.50;88.30;;;13.42;42.74;100382.72;4944027;28;97548;-50
2021/03/12 05:51:07;;;;;;;10.30;3.03;;;13.30;87.50;;;13.09;42.86;100379.97;4950986;28;97360;-53
2021/03/12 05:53:33;;;;;;;8.80;2.37;;;13.00;86.80;;;13.35;45.54;100379.56;4943214;28;102599;-51
2021/03/12 05:56:01;;;;;;;11.97;2.73;;;13.20;88.60;;;13.31;42.96;100391.25;4939692;28;96774;-52
2021/03/12 05:58:26;;;;;;;7.90;2.43;;;13.20;86.60;;;13.42;42.74;100381.88;4960240;28;97335;-49
2021/03/12 06:00:52;;;;;;;6.57;2.40;;;13.30;87.30;;;13.80;45.84;100380.72;4937691;28;106610;-50
2021/03/12 06:03:18;;;;;;;12.27;2.57;;;13.60;90.70;;;13.80;43.15;100387.81;4955417;28;96694;-50
2021/03/12 06:05:47;;;;;;;7.93;2.40;;;13.70;88.00;;;13.63;45.56;100392.22;4960731;28;97232;-53
2021/03/12 06:08:13;;;;;;;8.27;2.73;;;13.50;89.10;;;13.95;44.87;100382.56;4945736;28;97165;-51
2021/03/12 06:10:39;;;;;;;14.07;3.23;;;13.80;89.60;;;13.82;44.90;100386.81;4947185;28;103614;-51
2021/03/12 06:13:05;;;;;;;10.90;2.87;;;13.70;87.30;;;13.76;45.18;100397.75;4958430;28;116443;-53
2021/03/12 06:15:36;;;;;;;14.70;3.23;;;13.50;89.00;;;13.68;43.08;100395.47;4943490;28;108077;-52
2021/03/12 06:18:20;;;;;;;12.03;3.33;;;13.60;84.20;;;13.68;43.72;100399.94;4960670;28;97099;-50
2021/03/12 06:20:46;;;;;;;12.07;3.03;;;13.50;87.70;;;13.23;43.09;100396.06;4949044;28;98921;-51
2021/03/12 06:23:12;;;;;;;11.33;3.23;;;13.00;86.80;;;13.09;43.75;100407.31;4970199;28;97535;-54
2021/03/12 06:25:38;;;;;;;15.47;3.67;;;12.80;88.00;;;12.94;43.61;100407.22;4946175;28;102941;-52
2021/03/12 06:28:21;;;;;;;13.57;3.70;;;12.60;88.60;;;12.92;46.46;100411.75;4958395;28;102864;-50
2021/03/12 06:30:47;;;;;;;15.43;3.20;;;12.50;90.20;;;12.79;45.20;100408.84;4946355;28;98419;-50
2021/03/12 06:33:32;;;;;;;9.63;2.93;;;12.40;90.50;;;12.93;47.11;100410.81;4958304;28;98593;-49
2021/03/12 06:36:00;;;;;;;10.70;2.30;;;12.50;91.80;;;12.96;45.66;100408.00;4950833;28;97373;-55
2021/03/12 06:38:26;;;;;;;9.23;2.80;;;12.60;90.70;;;12.99;46.66;100405.19;4953558;28;99153;-59
2021/03/12 06:40:53;;;;;;;7.67;2.50;;;12.70;90.30;;;12.77;44.09;100416.84;4963661;28;105302;-50
2021/03/12 06:43:24;;;;;;;8.47;2.77;;;12.50;88.70;;;12.73;43.68;100415.28;4954105;28;96986;-52
2021/03/12 06:45:50;;;;;;;10.80;3.17;;;12.50;89.30;;;12.72;43.75;100418.84;4947291;28;96890;-52
2021/03/12 06:48:35;;;;;;;11.23;3.07;;;12.50;88.40;;;12.69;44.46;100424.28;4956776;28;97299;-51
2021/03/12 06:51:10;;;;;;;10.20;2.83;;;12.40;90.30;;;12.65;44.51;100430.66;4945378;28;104642;-51
2021/03/12 06:53:40;;;;;;;10.97;3.23;;;12.40;90.10;;;12.63;44.03;100434.31;4951619;28;97426;-53
2021/03/12 06:56:06;;;;;;;11.10;3.03;;;12.50;88.70;;;12.68;45.75;100432.31;4946354;28;98526;-51
2021/03/12 06:58:33;;;;;;;12.47;2.37;;;12.50;90.00;;;12.84;44.03;100437.72;4973226;28;96926;-52
2021/03/12 07:00:59;;;;;;;12.03;3.20;;;12.60;90.60;;;12.80;44.89;100429.94;4951999;28;98957;-53
2021/03/12 07:03:31;;;;;;;8.90;2.53;;;12.70;89.50;;;12.90;46.79;100438.28;4960723;28;96950;-52
2021/03/12 07:06:03;;;;;;;11.27;2.87;;;12.70;90.40;;;12.80;46.20;100443.16;4964583;28;96854;-51
2021/03/12 07:08:34;;;;;;;11.77;2.70;;;12.60;90.10;;;13.11;44.15;100441.66;4954739;28;102691;-55
2021/03/12 07:11:00;;;;;;;8.73;1.90;;;12.80;91.30;;;13.00;44.10;100443.97;4954274;28;103260;-51
2021/03/12 07:13:28;;;;;;;13.50;3.27;;;12.80;89.70;;;12.81;43.99;100450.16;4951758;28;98362;-52
2021/03/12 07:15:56;;;;;;;15.33;3.30;;;12.70;87.70;;;12.75;46.21;100444.31;4957004;28;96805;-51
2021/03/12 07:18:23;;;;;;;11.37;2.73;;;12.40;90.50;;;12.89;44.06;100451.59;4967076;28;96831;-54
2021/03/12 07:20:50;;;;;;;11.60;2.83;;;12.70;90.20;;;12.70;45.95;100456.91;4982185;28;98981;-51
2021/03/12 07:23:20;;;;;;;12.80;2.90;;;12.40;90.30;;;12.52;44.49;100451.56;4968040;28;98248;-52
2021/03/12 07:25:47;;;;;;;12.07;2.93;;;12.30;90.20;;;12.48;44.25;100454.41;4973966;28;96782;-53
2021/03/12 07:28:15;;;;;;;10.57;2.90;;;12.30;89.10;;;12.33;46.95;100449.84;4984334;28;97646;-54
2021/03/12 07:30:43;;;;;;;11.77;2.90;;;12.10;90.20;;;12.35;47.09;100450.63;4991891;28;102270;-52
2021/03/12 07:33:10;;;;;;;10.17;2.93;;;12.00;91.00;;;12.28;48.50;100454.47;4968340;28;97410;-52
2021/03/12 07:35:38;;;;;;;12.00;2.60;;;11.90;91.40;;;12.36;45.60;100463.78;4952507;28;97209;-49
2021/03/12 07:38:10;;;;;;;8.00;2.10;;;12.10;90.70;;;12.76;45.35;100457.47;4967934;28;96859;-54
2021/03/12 07:40:37;;;;;;;12.20;2.90;;;12.60;91.20;;;12.61;44.42;100463.50;4952579;28;97575;-52
2021/03/12 07:43:03;;;;;;;14.60;3.57;;;12.50;89.30;;;12.41;44.30;100460.91;4969258;28;97150;-48
2021/03/12 07:45:29;;;;;;;10.87;3.30;;;12.30;89.20;;;12.73;45.18;100477.91;4966273;28;96879;-53
2021/03/12 07:47:56;;;;;;;7.67;2.13;;;12.60;89.20;;;12.71;43.99;100478.00;4955349;28;96818;-52
2021/03/12 07:50:36;;;;;;;10.77;2.70;;;12.60;89.40;;;12.94;47.26;100473.41;4951535;28;100462;-52
2021/03/12 07:53:04;;;;;;;6.23;1.73;;;12.60;90.10;;;13.05;44.04;100476.41;4986496;28;96775;-50
2021/03/12 07:55:35;;;;;;;13.47;3.40;;;12.90;90.20;;;12.79;44.96;100478.50;4966375;28;96936;-51
2021/03/12 07:58:06;;;;;;;10.83;2.57;;;12.60;89.10;;;12.69;44.08;100482.50;4970093;28;96986;-50
2021/03/12 08:00:52;;;;;;;11.03;2.90;;;12.50;89.50;;;12.68;44.55;100480.78;4962257;28;97039;-51
2021/03/12 08:03:30;;;;;;;8.53;2.37;;;12.50;89.60;;;12.86;44.53;100473.75;4964059;28;99239;-52
2021/03/12 08:05:56;;;;;;;10.37;2.93;;;12.70;89.90;;;12.91;44.11;100471.78;4979902;28;98189;-49
2021/03/12 08:08:34;;;;;;;10.30;2.20;;;12.70;89.20;;;13.07;43.70;100477.19;4961205;28;107483;-49
2021/03/12 08:11:22;;;;;;;9.03;2.43;;;12.90;88.60;;;12.79;43.56;100489.09;4967729;28;98721;-54
2021/03/12 08:13:50;;;;;;;9.60;2.50;;;12.60;88.40;;;12.70;44.02;100488.66;4976156;28;100202;-52
2021/03/12 08:16:16;;;;;;;9.90;2.83;;;12.50;89.10;;;12.87;44.08;100486.06;4967898;28;96917;-53
2021/03/12 08:18:42;;;;;;;14.23;2.73;;;12.60;90.10;;;12.70;44.90;100486.00;4982009;28;96939;-53
2021/03/12 08:21:32;;;;;;;10.60;2.77;;;12.50;89.50;;;12.65;44.72;100480.94;5001340;28;99572;-51
2021/03/12 08:23:59;;;;;;;7.63;2.80;;;12.50;90.00;;;12.62;44.80;100483.75;4964838;28;98342;-52
2021/03/12 08:26:48;;;;;;;8.00;2.57;;;12.40;90.40;;;12.57;44.19;100479.56;4974275;28;96972;-48
2021/03/12 08:29:35;;;;;;;10.80;2.93;;;12.50;89.20;;;12.42;45.35;100478.50;5000007;28;96828;-52
2021/03/12 08:32:01;;;;;;;9.33;2.70;;;12.30;89.70;;;12.42;47.16;100481.13;4968591;28;96757;-52
2021/03/12 08:34:42;;;;;;;9.83;2.33;;;12.20;90.70;;;12.39;47.08;100481.28;4996100;28;98185;-52
2021/03/12 08:37:26;;;;;;;12.53;3.43;;;12.10;91.20;;;12.35;45.23;100472.63;4973891;28;97562;-49
2021/03/12 08:40:14;;;;;;;12.70;3.20;;;12.20;90.50;;;12.36;46.28;100484.06;4982312;28;96886;-52
2021/03/12 08:42:58;;;;;;;14.73;3.37;;;12.20;91.00;;;12.45;45.99;100473.09;4986025;28;99859;-50
2021/03/12 08:45:57;;;;;;;13.17;3.50;;;12.30;90.70;;;12.17;45.94;100479.63;4964485;28;98272;-49
2021/03/12 08:48:31;;;;;;;10.40;3.03;;;12.00;90.20;;;12.13;45.82;100491.25;4968554;28;96683;-52
2021/03/12 08:51:02;;;;;;;9.70;2.70;;;12.00;90.80;;;12.50;47.10;100479.00;4966639;28;96946;-51
2021/03/12 08:53:32;;;;;;;7.93;2.70;;;12.30;91.70;;;12.49;45.72;100474.66;4986545;28;97629;-52
2021/03/12 08:56:00;;;;;;;13.23;2.97;;;12.40;90.50;;;12.53;46.77;100463.00;4968240;28;97168;-51
2021/03/12 08:58:31;;;;;;;11.00;2.47;;;12.40;90.40;;;12.73;45.34;100472.63;4965344;28;97189;-53
2021/03/12 09:01:09;;;;;;;12.53;2.40;;;12.60;90.60;;;12.70;45.21;100468.34;4963772;28;97000;-51
2021/03/12 09:03:36;;;;;;;10.83;2.70;;;12.60;90.40;;;12.65;45.13;100465.06;4997303;28;100045;-50
2021/03/12 09:06:12;;;;;;;12.27;2.83;;;12.50;90.30;;;12.69;46.16;100468.41;4976429;28;96750;-53
2021/03/12 09:08:43;;;;;;;8.03;2.40;;;12.50;91.20;;;12.58;45.56;100463.63;4964575;28;96986;-53
2021/03/12 09:11:14;;;;;;;11.63;2.53;;;12.50;90.70;;;12.70;45.40;100473.63;4961060;28;96879;-50
2021/03/12 09:13:44;;;;;;;8.97;2.63;;;12.60;90.60;;;12.76;45.98;100470.72;4963595;28;97005;-52
2021/03/12 09:16:18;;;;;;;11.33;2.67;;;12.70;90.80;;;12.62;45.28;100475.81;4969632;28;98197;-52
2021/03/12 09:18:44;;;;;;;9.87;2.37;;;12.60;89.90;;;12.88;46.91;100471.06;4969321;28;96833;-50
2021/03/12 09:21:14;;;;;;;10.87;2.77;;;12.70;91.30;;;13.07;45.01;100471.88;4969178;28;97688;-51
2021/03/12 09:23:49;;;;;;;7.17;1.90;;;13.10;89.70;;;13.28;45.61;100475.28;4969620;28;99907;-49
2021/03/12 09:26:22;;;;;;;9.33;2.20;;;13.20;90.50;;;13.33;46.61;100474.16;4970206;28;98106;-49
2021/03/12 09:28:55;;;;;;;15.00;3.00;;;13.10;90.90;;;13.30;45.66;100474.28;4954568;28;96667;-55
2021/03/12 09:31:32;;;;;;;11.03;3.03;;;13.20;89.20;;;13.28;43.92;100465.53;4970679;28;96769;-52
2021/03/12 09:34:00;;;;;;;12.17;2.50;;;13.20;88.10;;;13.40;44.08;100453.50;4970252;28;97214;-51
2021/03/12 09:36:32;;;;;;;10.87;2.77;;;13.30;89.70;;;13.29;43.48;100461.97;4971853;28;98069;-50
2021/03/12 09:39:12;;;;;;;9.80;2.23;;;13.20;88.10;;;13.07;43.97;100466.59;5002017;28;96665;-49
2021/03/12 09:41:41;;;;;;;17.03;3.23;;;12.90;88.40;;;12.99;45.37;100460.78;4970949;28;96771;-53
2021/03/12 09:44:12;;;;;;;11.73;2.73;;;12.80;88.90;;;12.90;43.66;100463.91;4952569;28;97702;-49
2021/03/12 09:46:48;;;;;;;12.33;2.97;;;12.70;88.80;;;13.03;42.82;100467.69;4974817;28;97242;-50
2021/03/12 09:49:24;;;;;;;14.00;2.93;;;12.90;87.60;;;13.02;43.97;100448.28;4970908;28;96715;-49
2021/03/12 09:51:54;;;;;;;12.70;2.47;;;12.80;89.70;;;12.92;42.71;100448.81;4969275;28;97006;-51
2021/03/12 09:54:23;;;;;;;7.90;2.10;;;12.80;86.60;;;12.97;43.23;100452.06;4967807;28;96914;-50
2021/03/12 09:56:54;;;;;;;11.93;2.70;;;12.80;87.80;;;13.00;45.66;100449.28;4983099;28;96854;-49
2021/03/12 09:59:32;;;;;;;10.97;2.33;;;12.80;88.20;;;13.19;45.64;100439.53;4970119;28;96644;-51
2021/03/12 10:02:10;;;;;;;13.97;3.10;;;13.00;89.60;;;13.28;42.16;100433.75;4969964;28;96816;-50
2021/03/12 10:04:39;;;;;;;12.87;2.90;;;13.20;85.20;;;13.22;43.36;100427.94;4981052;28;96789;-50
2021/03/12 10:07:09;;;;;;;15.77;3.47;;;13.10;84.90;;;13.13;41.46;100418.59;4967842;28;97267;-48
2021/03/12 10:09:44;;;;;;;6.07;2.17;;;13.10;84.30;;;13.07;43.34;100424.22;4969077;28;97041;-52
2021/03/12 10:12:24;;;;;;;8.63;2.37;;;12.90;86.10;;;13.19;41.18;100423.66;4985881;28;97048;-49
2021/03/12 10:14:52;;;;;;;10.00;3.27;;;13.20;84.00;;;13.21;42.20;100432.38;4967830;28;97819;-50
2021/03/12 10:17:26;;;;;;;11.23;2.20;;;13.10;83.50;;;13.29;42.57;100427.53;4971077;28;96673;-50
2021/03/12 10:20:04;;;;;;;7.87;1.97;;;13.20;85.50;;;13.60;43.80;100424.19;4968079;28;96843;-52